sensor_id;sensor_type;location;lat;lon;timestamp;pressure;altitude;pressure_sealevel;temperature;humidity
6132;BME280;3097;42.692;23.278;2022-07-17T00:01:27;95389.44;;;23.57;60.52
6132;BME280;3097;42.692;23.278;2022-07-17T00:03:53;95391.19;;;23.61;60.54
6132;BME280;3097;42.692;23.278;2022-07-17T00:06:18;95395.09;;;23.64;60.31
6132;BME280;3097;42.692;23.278;2022-07-17T00:08:44;95393.53;;;23.63;60.57
6132;BME280;3097;42.692;23.278;2022-07-17T00:11:10;95397.06;;;23.58;60.56
6132;BME280;3097;42.692;23.278;2022-07-17T00:13:35;95400.47;;;23.59;60.45
6132;BME280;3097;42.692;23.278;2022-07-17T00:16:00;95398.13;;;23.57;60.82
6132;BME280;3097;42.692;23.278;2022-07-17T00:18:26;95401.03;;;23.56;60.52
6132;BME280;3097;42.692;23.278;2022-07-17T00:20:52;95399.78;;;23.53;60.97
6132;BME280;3097;42.692;23.278;2022-07-17T00:23:17;95399.56;;;23.49;60.80
6132;BME280;3097;42.692;23.278;2022-07-17T00:25:43;95402.22;;;23.49;61.36
6132;BME280;3097;42.692;23.278;2022-07-17T00:28:09;95403.28;;;23.48;61.43
6132;BME280;3097;42.692;23.278;2022-07-17T00:30:34;95399.63;;;23.44;61.20
6132;BME280;3097;42.692;23.278;2022-07-17T00:33:00;95401.50;;;23.44;61.04
6132;BME280;3097;42.692;23.278;2022-07-17T00:35:26;95400.88;;;23.47;60.88
6132;BME280;3097;42.692;23.278;2022-07-17T00:37:51;95402.06;;;23.41;61.18
6132;BME280;3097;42.692;23.278;2022-07-17T00:40:22;95409.81;;;23.32;61.06
6132;BME280;3097;42.692;23.278;2022-07-17T00:42:49;95403.50;;;23.33;60.94
6132;BME280;3097;42.692;23.278;2022-07-17T00:45:15;95412.53;;;23.27;61.63
6132;BME280;3097;42.692;23.278;2022-07-17T00:48:01;95409.50;;;23.20;61.47
6132;BME280;3097;42.692;23.278;2022-07-17T00:50:30;95411.13;;;23.16;62.37
6132;BME280;3097;42.692;23.278;2022-07-17T00:52:56;95426.72;;;23.12;62.42
6132;BME280;3097;42.692;23.278;2022-07-17T00:55:23;95421.81;;;23.06;62.53
6132;BME280;3097;42.692;23.278;2022-07-17T00:57:49;95416.94;;;22.99;62.78
6132;BME280;3097;42.692;23.278;2022-07-17T01:00:16;95416.94;;;22.99;62.58
6132;BME280;3097;42.692;23.278;2022-07-17T01:02:45;95421.19;;;22.95;62.95
6132;BME280;3097;42.692;23.278;2022-07-17T01:05:12;95419.69;;;22.89;62.78
6132;BME280;3097;42.692;23.278;2022-07-17T01:07:38;95428.56;;;22.93;62.80
6132;BME280;3097;42.692;23.278;2022-07-17T01:10:03;95424.59;;;22.96;62.87
6132;BME280;3097;42.692;23.278;2022-07-17T01:12:30;95412.59;;;22.90;62.58
6132;BME280;3097;42.692;23.278;2022-07-17T01:14:56;95414.56;;;22.98;62.04
6132;BME280;3097;42.692;23.278;2022-07-17T01:17:22;95420.13;;;22.96;62.53
6132;BME280;3097;42.692;23.278;2022-07-17T01:19:48;95414.66;;;22.93;62.51
6132;BME280;3097;42.692;23.278;2022-07-17T01:22:13;95423.53;;;22.97;62.46
6132;BME280;3097;42.692;23.278;2022-07-17T01:24:39;95416.44;;;22.97;62.46
6132;BME280;3097;42.692;23.278;2022-07-17T01:27:05;95404.19;;;22.88;62.60
6132;BME280;3097;42.692;23.278;2022-07-17T01:29:31;95395.38;;;22.78;62.39
6132;BME280;3097;42.692;23.278;2022-07-17T01:31:56;95422.31;;;22.89;62.79
6132;BME280;3097;42.692;23.278;2022-07-17T01:34:22;95423.19;;;22.85;62.69
6132;BME280;3097;42.692;23.278;2022-07-17T01:36:48;95395.88;;;22.62;62.91
6132;BME280;3097;42.692;23.278;2022-07-17T01:39:13;95425.94;;;22.74;63.05
6132;BME280;3097;42.692;23.278;2022-07-17T01:41:39;95427.53;;;22.70;63.40
6132;BME280;3097;42.692;23.278;2022-07-17T01:44:05;95423.56;;;22.73;63.37
6132;BME280;3097;42.692;23.278;2022-07-17T01:46:32;95414.41;;;22.70;63.22
6132;BME280;3097;42.692;23.278;2022-07-17T01:48:57;95414.41;;;22.70;63.12
6132;BME280;3097;42.692;23.278;2022-07-17T01:51:23;95415.44;;;22.74;63.60
6132;BME280;3097;42.692;23.278;2022-07-17T01:53:48;95424.38;;;22.73;64.43
6132;BME280;3097;42.692;23.278;2022-07-17T01:56:14;95419.91;;;22.74;65.40
6132;BME280;3097;42.692;23.278;2022-07-17T01:58:39;95420.22;;;22.67;66.28
6132;BME280;3097;42.692;23.278;2022-07-17T02:01:05;95426.84;;;22.65;65.99
6132;BME280;3097;42.692;23.278;2022-07-17T02:03:30;95417.69;;;22.62;65.98
6132;BME280;3097;42.692;23.278;2022-07-17T02:05:56;95424.56;;;22.58;65.07
6132;BME280;3097;42.692;23.278;2022-07-17T02:08:21;95421.41;;;22.56;64.50
6132;BME280;3097;42.692;23.278;2022-07-17T02:10:47;95425.13;;;22.55;64.43
6132;BME280;3097;42.692;23.278;2022-07-17T02:13:12;95423.63;;;22.49;64.23
6132;BME280;3097;42.692;23.278;2022-07-17T02:15:38;95421.50;;;22.51;63.73
6132;BME280;3097;42.692;23.278;2022-07-17T02:18:03;95421.50;;;22.51;65.54
6132;BME280;3097;42.692;23.278;2022-07-17T02:20:29;95396.63;;;22.25;65.64
6132;BME280;3097;42.692;23.278;2022-07-17T02:22:54;95433.31;;;22.30;65.52
6132;BME280;3097;42.692;23.278;2022-07-17T02:25:20;95433.88;;;22.27;65.61
6132;BME280;3097;42.692;23.278;2022-07-17T02:27:46;95424.66;;;22.29;64.96
6132;BME280;3097;42.692;23.278;2022-07-17T02:30:16;95430.97;;;22.28;65.22
6132;BME280;3097;42.692;23.278;2022-07-17T02:32:43;95425.44;;;22.30;65.88
6132;BME280;3097;42.692;23.278;2022-07-17T02:35:09;95407.25;;;22.15;65.91
6132;BME280;3097;42.692;23.278;2022-07-17T02:37:36;95426.06;;;22.22;66.62
6132;BME280;3097;42.692;23.278;2022-07-17T02:40:02;95435.00;;;22.21;67.16
6132;BME280;3097;42.692;23.278;2022-07-17T02:42:30;95436.84;;;22.20;67.65
6132;BME280;3097;42.692;23.278;2022-07-17T02:44:57;95434.34;;;22.10;68.62
6132;BME280;3097;42.692;23.278;2022-07-17T02:47:30;95427.91;;;21.97;68.86
6132;BME280;3097;42.692;23.278;2022-07-17T02:49:57;95441.06;;;21.92;69.07
6132;BME280;3097;42.692;23.278;2022-07-17T02:52:22;95431.63;;;21.91;68.59
6132;BME280;3097;42.692;23.278;2022-07-17T02:54:48;95438.16;;;21.94;68.58
6132;BME280;3097;42.692;23.278;2022-07-17T02:57:14;95452.88;;;21.90;68.79
6132;BME280;3097;42.692;23.278;2022-07-17T02:59:40;95446.38;;;21.87;68.69
6132;BME280;3097;42.692;23.278;2022-07-17T03:02:05;95451.91;;;21.86;69.00
6132;BME280;3097;42.692;23.278;2022-07-17T03:04:31;95449.00;;;21.87;68.33
6132;BME280;3097;42.692;23.278;2022-07-17T03:06:57;95451.13;;;21.80;68.47
6132;BME280;3097;42.692;23.278;2022-07-17T03:09:22;95459.53;;;21.82;68.70
6132;BME280;3097;42.692;23.278;2022-07-17T03:11:48;95448.84;;;21.74;69.15
6132;BME280;3097;42.692;23.278;2022-07-17T03:14:13;95450.13;;;21.76;68.86
6132;BME280;3097;42.692;23.278;2022-07-17T03:16:39;95475.53;;;21.81;69.64
6132;BME280;3097;42.692;23.278;2022-07-17T03:19:04;95461.03;;;21.65;69.75
6132;BME280;3097;42.692;23.278;2022-07-17T03:21:29;95471.66;;;21.78;69.74
6132;BME280;3097;42.692;23.278;2022-07-17T03:23:55;95476.06;;;21.83;69.90
6132;BME280;3097;42.692;23.278;2022-07-17T03:26:20;95474.75;;;21.80;70.13
6132;BME280;3097;42.692;23.278;2022-07-17T03:28:46;95474.00;;;21.80;69.47
6132;BME280;3097;42.692;23.278;2022-07-17T03:31:11;95481.59;;;21.81;68.89
6132;BME280;3097;42.692;23.278;2022-07-17T03:33:37;95488.47;;;21.77;68.27
6132;BME280;3097;42.692;23.278;2022-07-17T03:36:03;95492.09;;;21.81;68.19
6132;BME280;3097;42.692;23.278;2022-07-17T03:38:28;95495.00;;;21.80;67.93
6132;BME280;3097;42.692;23.278;2022-07-17T03:40:53;95496.28;;;21.82;67.65
6132;BME280;3097;42.692;23.278;2022-07-17T03:43:19;95497.06;;;21.83;67.60
6132;BME280;3097;42.692;23.278;2022-07-17T03:45:45;95489.44;;;21.86;67.72
6132;BME280;3097;42.692;23.278;2022-07-17T03:48:10;95493.09;;;21.85;66.50
6132;BME280;3097;42.692;23.278;2022-07-17T03:50:36;95489.69;;;21.85;66.18
6132;BME280;3097;42.692;23.278;2022-07-17T03:53:01;95489.88;;;21.93;65.42
6132;BME280;3097;42.692;23.278;2022-07-17T03:55:26;95494.31;;;21.98;65.48
6132;BME280;3097;42.692;23.278;2022-07-17T03:57:52;95506.34;;;22.04;65.11
6132;BME280;3097;42.692;23.278;2022-07-17T04:00:18;95508.94;;;22.09;65.09
6132;BME280;3097;42.692;23.278;2022-07-17T04:02:43;95516.50;;;22.11;65.82
6132;BME280;3097;42.692;23.278;2022-07-17T04:05:10;95520.63;;;22.22;64.76
6132;BME280;3097;42.692;23.278;2022-07-17T04:07:40;95517.94;;;22.27;65.10
6132;BME280;3097;42.692;23.278;2022-07-17T04:10:07;95516.78;;;22.38;64.35
6132;BME280;3097;42.692;23.278;2022-07-17T04:12:33;95514.50;;;22.55;63.74
6132;BME280;3097;42.692;23.278;2022-07-17T04:14:59;95510.50;;;22.82;62.80
6132;BME280;3097;42.692;23.278;2022-07-17T04:17:25;95514.31;;;23.13;61.50
6132;BME280;3097;42.692;23.278;2022-07-17T04:19:50;95525.75;;;23.41;60.30
6132;BME280;3097;42.692;23.278;2022-07-17T04:22:16;95525.53;;;23.75;58.70
6132;BME280;3097;42.692;23.278;2022-07-17T04:24:42;95521.09;;;24.03;57.39
6132;BME280;3097;42.692;23.278;2022-07-17T04:27:07;95502.13;;;24.33;56.22
6132;BME280;3097;42.692;23.278;2022-07-17T04:29:34;95513.06;;;24.54;54.97
6132;BME280;3097;42.692;23.278;2022-07-17T04:31:59;95517.94;;;24.74;54.98
6132;BME280;3097;42.692;23.278;2022-07-17T04:34:25;95526.72;;;24.97;53.46
6132;BME280;3097;42.692;23.278;2022-07-17T04:36:51;95503.72;;;25.11;52.41
6132;BME280;3097;42.692;23.278;2022-07-17T04:39:16;95519.88;;;25.45;50.99
6132;BME280;3097;42.692;23.278;2022-07-17T04:41:42;95533.22;;;26.07;50.33
6132;BME280;3097;42.692;23.278;2022-07-17T04:44:07;95526.47;;;26.63;49.05
6132;BME280;3097;42.692;23.278;2022-07-17T04:46:33;95530.03;;;27.15;48.40
6132;BME280;3097;42.692;23.278;2022-07-17T04:48:58;95535.06;;;27.68;45.86
6132;BME280;3097;42.692;23.278;2022-07-17T04:51:24;95536.72;;;28.16;43.91
6132;BME280;3097;42.692;23.278;2022-07-17T04:53:49;95520.81;;;28.54;41.94
6132;BME280;3097;42.692;23.278;2022-07-17T04:56:15;95513.16;;;28.91;41.84
6132;BME280;3097;42.692;23.278;2022-07-17T04:58:40;95537.47;;;29.51;41.03
6132;BME280;3097;42.692;23.278;2022-07-17T05:01:06;95541.63;;;29.94;40.75
6132;BME280;3097;42.692;23.278;2022-07-17T05:03:32;95549.94;;;30.37;40.10
6132;BME280;3097;42.692;23.278;2022-07-17T05:05:57;95550.94;;;30.45;39.52
6132;BME280;3097;42.692;23.278;2022-07-17T05:08:23;95549.44;;;30.68;37.83
6132;BME280;3097;42.692;23.278;2022-07-17T05:10:48;95487.34;;;30.64;37.83
6132;BME280;3097;42.692;23.278;2022-07-17T05:13:13;95545.72;;;31.46;37.87
6132;BME280;3097;42.692;23.278;2022-07-17T05:15:39;95548.59;;;31.81;36.18
6132;BME280;3097;42.692;23.278;2022-07-17T05:18:04;95518.91;;;31.95;36.35
6132;BME280;3097;42.692;23.278;2022-07-17T05:20:30;95518.09;;;32.22;36.13
6132;BME280;3097;42.692;23.278;2022-07-17T05:22:56;95522.75;;;32.72;34.79
6132;BME280;3097;42.692;23.278;2022-07-17T05:25:22;95531.09;;;33.37;33.59
6132;BME280;3097;42.692;23.278;2022-07-17T05:27:47;95549.47;;;33.77;33.19
6132;BME280;3097;42.692;23.278;2022-07-17T05:30:13;95550.94;;;34.13;32.25
6132;BME280;3097;42.692;23.278;2022-07-17T05:32:39;95550.25;;;34.39;29.63
6132;BME280;3097;42.692;23.278;2022-07-17T05:35:05;95555.25;;;34.40;28.28
6132;BME280;3097;42.692;23.278;2022-07-17T05:37:30;95556.22;;;34.09;27.15
6132;BME280;3097;42.692;23.278;2022-07-17T05:39:56;95558.06;;;33.86;27.43
6132;BME280;3097;42.692;23.278;2022-07-17T05:42:22;95547.97;;;33.41;28.63
6132;BME280;3097;42.692;23.278;2022-07-17T05:44:47;95552.41;;;34.10;27.79
6132;BME280;3097;42.692;23.278;2022-07-17T05:47:13;95557.34;;;34.28;27.21
6132;BME280;3097;42.692;23.278;2022-07-17T05:49:39;95543.41;;;34.64;26.41
6132;BME280;3097;42.692;23.278;2022-07-17T05:52:04;95542.69;;;35.20;26.53
6132;BME280;3097;42.692;23.278;2022-07-17T05:54:30;95549.53;;;35.40;25.60
6132;BME280;3097;42.692;23.278;2022-07-17T05:56:58;95553.81;;;35.75;25.17
6132;BME280;3097;42.692;23.278;2022-07-17T05:59:23;95554.06;;;36.33;25.03
6132;BME280;3097;42.692;23.278;2022-07-17T06:01:49;95554.94;;;36.07;23.69
6132;BME280;3097;42.692;23.278;2022-07-17T06:04:14;95559.84;;;36.35;23.57
6132;BME280;3097;42.692;23.278;2022-07-17T06:06:40;95557.56;;;36.81;23.31
6132;BME280;3097;42.692;23.278;2022-07-17T06:09:05;95542.31;;;36.11;23.35
6132;BME280;3097;42.692;23.278;2022-07-17T06:11:34;95564.06;;;35.99;24.27
6132;BME280;3097;42.692;23.278;2022-07-17T06:13:59;95556.84;;;35.73;24.50
6132;BME280;3097;42.692;23.278;2022-07-17T06:16:25;95554.00;;;34.80;25.66
6132;BME280;3097;42.692;23.278;2022-07-17T06:18:51;95575.91;;;35.12;25.50
6132;BME280;3097;42.692;23.278;2022-07-17T06:21:16;95566.09;;;35.49;25.48
6132;BME280;3097;42.692;23.278;2022-07-17T06:23:41;95567.81;;;35.94;26.71
6132;BME280;3097;42.692;23.278;2022-07-17T06:26:07;95558.53;;;35.55;25.08
6132;BME280;3097;42.692;23.278;2022-07-17T06:28:32;95576.44;;;35.47;25.37
6132;BME280;3097;42.692;23.278;2022-07-17T06:30:58;95573.09;;;35.57;26.90
6132;BME280;3097;42.692;23.278;2022-07-17T06:33:24;95577.66;;;35.53;26.65
6132;BME280;3097;42.692;23.278;2022-07-17T06:35:49;95572.94;;;35.43;26.12
6132;BME280;3097;42.692;23.278;2022-07-17T06:38:15;95569.31;;;35.06;26.42
6132;BME280;3097;42.692;23.278;2022-07-17T06:40:40;95564.94;;;34.26;26.19
6132;BME280;3097;42.692;23.278;2022-07-17T06:43:06;95574.66;;;33.57;26.60
6132;BME280;3097;42.692;23.278;2022-07-17T06:45:32;95564.47;;;33.27;27.32
6132;BME280;3097;42.692;23.278;2022-07-17T06:47:58;95575.78;;;33.05;28.73
6132;BME280;3097;42.692;23.278;2022-07-17T06:50:24;95570.03;;;33.03;29.09
6132;BME280;3097;42.692;23.278;2022-07-17T06:52:49;95573.00;;;33.17;28.90
6132;BME280;3097;42.692;23.278;2022-07-17T06:55:15;95546.78;;;32.88;28.38
6132;BME280;3097;42.692;23.278;2022-07-17T06:57:41;95571.56;;;33.04;29.41
6132;BME280;3097;42.692;23.278;2022-07-17T07:00:07;95560.84;;;32.85;28.24
6132;BME280;3097;42.692;23.278;2022-07-17T07:02:34;95579.31;;;33.09;28.88
6132;BME280;3097;42.692;23.278;2022-07-17T07:05:00;95570.66;;;32.81;28.79
6132;BME280;3097;42.692;23.278;2022-07-17T07:07:26;95569.28;;;32.71;31.51
6132;BME280;3097;42.692;23.278;2022-07-17T07:09:51;95560.66;;;32.62;29.60
6132;BME280;3097;42.692;23.278;2022-07-17T07:12:17;95580.72;;;32.40;29.15
6132;BME280;3097;42.692;23.278;2022-07-17T07:14:42;95588.88;;;32.63;30.23
6132;BME280;3097;42.692;23.278;2022-07-17T07:17:08;95580.47;;;32.92;29.12
6132;BME280;3097;42.692;23.278;2022-07-17T07:19:33;95585.44;;;32.94;30.98
6132;BME280;3097;42.692;23.278;2022-07-17T07:21:59;95584.50;;;33.02;30.59
6132;BME280;3097;42.692;23.278;2022-07-17T07:24:24;95586.66;;;32.96;28.87
6132;BME280;3097;42.692;23.278;2022-07-17T07:26:49;95589.78;;;32.83;30.72
6132;BME280;3097;42.692;23.278;2022-07-17T07:29:15;95592.66;;;33.09;29.62
6132;BME280;3097;42.692;23.278;2022-07-17T07:31:40;95594.38;;;33.33;28.81
6132;BME280;3097;42.692;23.278;2022-07-17T07:34:06;95595.56;;;33.70;28.10
6132;BME280;3097;42.692;23.278;2022-07-17T07:36:31;95594.31;;;33.84;27.24
6132;BME280;3097;42.692;23.278;2022-07-17T07:38:56;95589.03;;;33.87;28.17
6132;BME280;3097;42.692;23.278;2022-07-17T07:41:22;95585.53;;;33.83;27.11
6132;BME280;3097;42.692;23.278;2022-07-17T07:43:48;95589.63;;;33.96;28.42
6132;BME280;3097;42.692;23.278;2022-07-17T07:46:13;95590.50;;;33.65;28.19
6132;BME280;3097;42.692;23.278;2022-07-17T07:48:39;95581.53;;;33.73;28.74
6132;BME280;3097;42.692;23.278;2022-07-17T07:51:04;95518.91;;;33.59;29.75
6132;BME280;3097;42.692;23.278;2022-07-17T07:53:30;95581.78;;;34.07;27.42
6132;BME280;3097;42.692;23.278;2022-07-17T07:55:55;95589.66;;;34.00;28.37
6132;BME280;3097;42.692;23.278;2022-07-17T07:58:21;95583.97;;;34.01;28.22
6132;BME280;3097;42.692;23.278;2022-07-17T08:00:46;95589.53;;;33.73;28.32
6132;BME280;3097;42.692;23.278;2022-07-17T08:03:12;95590.53;;;33.50;29.42
6132;BME280;3097;42.692;23.278;2022-07-17T08:05:38;95593.50;;;33.45;29.39
6132;BME280;3097;42.692;23.278;2022-07-17T08:08:04;95587.72;;;33.42;28.47
6132;BME280;3097;42.692;23.278;2022-07-17T08:10:30;95596.19;;;33.45;29.13
6132;BME280;3097;42.692;23.278;2022-07-17T08:12:56;95583.34;;;33.54;29.68
6132;BME280;3097;42.692;23.278;2022-07-17T08:15:21;95590.84;;;33.64;27.57
6132;BME280;3097;42.692;23.278;2022-07-17T08:17:49;95595.94;;;33.18;28.35
6132;BME280;3097;42.692;23.278;2022-07-17T08:20:16;95592.78;;;32.97;30.46
6132;BME280;3097;42.692;23.278;2022-07-17T08:22:42;95584.56;;;33.37;28.24
6132;BME280;3097;42.692;23.278;2022-07-17T08:25:08;95587.94;;;33.53;28.15
6132;BME280;3097;42.692;23.278;2022-07-17T08:27:38;95597.50;;;33.54;28.21
6132;BME280;3097;42.692;23.278;2022-07-17T08:30:05;95578.25;;;33.45;28.26
6132;BME280;3097;42.692;23.278;2022-07-17T08:32:31;95572.47;;;33.43;29.67
6132;BME280;3097;42.692;23.278;2022-07-17T08:34:57;95547.72;;;32.95;28.23
6132;BME280;3097;42.692;23.278;2022-07-17T08:37:22;95592.44;;;32.98;29.27
6132;BME280;3097;42.692;23.278;2022-07-17T08:39:49;95592.91;;;32.69;30.58
6132;BME280;3097;42.692;23.278;2022-07-17T08:42:15;95595.44;;;32.65;30.14
6132;BME280;3097;42.692;23.278;2022-07-17T08:44:42;95597.13;;;32.70;31.08
6132;BME280;3097;42.692;23.278;2022-07-17T08:47:09;95594.19;;;32.75;31.00
6132;BME280;3097;42.692;23.278;2022-07-17T08:49:40;95585.53;;;32.97;29.28
6132;BME280;3097;42.692;23.278;2022-07-17T08:52:06;95572.72;;;32.87;29.52
6132;BME280;3097;42.692;23.278;2022-07-17T08:54:32;95588.97;;;32.66;29.99
6132;BME280;3097;42.692;23.278;2022-07-17T08:56:57;95580.22;;;32.82;30.83
6132;BME280;3097;42.692;23.278;2022-07-17T08:59:23;95580.53;;;32.64;28.79
6132;BME280;3097;42.692;23.278;2022-07-17T09:01:48;95580.00;;;32.43;30.69
6132;BME280;3097;42.692;23.278;2022-07-17T09:04:14;95574.75;;;32.31;30.03
6132;BME280;3097;42.692;23.278;2022-07-17T09:06:41;95581.69;;;32.20;30.91
6132;BME280;3097;42.692;23.278;2022-07-17T09:09:09;95574.03;;;32.18;30.29
6132;BME280;3097;42.692;23.278;2022-07-17T09:11:49;95578.19;;;32.04;31.75
6132;BME280;3097;42.692;23.278;2022-07-17T09:14:16;95583.59;;;32.19;31.39
6132;BME280;3097;42.692;23.278;2022-07-17T09:16:56;95581.66;;;32.48;31.25
6132;BME280;3097;42.692;23.278;2022-07-17T09:19:34;95570.19;;;32.32;30.80
6132;BME280;3097;42.692;23.278;2022-07-17T09:22:12;95577.25;;;32.24;30.02
6132;BME280;3097;42.692;23.278;2022-07-17T09:27:36;95553.06;;;32.05;29.72
6132;BME280;3097;42.692;23.278;2022-07-17T09:30:04;95573.34;;;31.94;30.27
6132;BME280;3097;42.692;23.278;2022-07-17T09:32:33;95571.31;;;31.75;30.80
6132;BME280;3097;42.692;23.278;2022-07-17T09:35:00;95572.66;;;31.69;31.98
6132;BME280;3097;42.692;23.278;2022-07-17T09:37:28;95568.34;;;31.64;30.83
6132;BME280;3097;42.692;23.278;2022-07-17T09:39:54;95581.25;;;31.50;30.62
6132;BME280;3097;42.692;23.278;2022-07-17T09:42:25;95582.75;;;31.23;30.95
6132;BME280;3097;42.692;23.278;2022-07-17T09:45:06;95571.09;;;31.03;32.07
6132;BME280;3097;42.692;23.278;2022-07-17T09:47:34;95576.31;;;31.12;31.35
6132;BME280;3097;42.692;23.278;2022-07-17T09:50:00;95582.06;;;31.26;29.17
6132;BME280;3097;42.692;23.278;2022-07-17T09:52:29;95585.44;;;31.11;28.96
6132;BME280;3097;42.692;23.278;2022-07-17T09:54:59;95572.63;;;30.92;30.51
6132;BME280;3097;42.692;23.278;2022-07-17T09:57:33;95571.31;;;30.74;29.51
6132;BME280;3097;42.692;23.278;2022-07-17T10:00:03;95574.75;;;30.74;31.23
6132;BME280;3097;42.692;23.278;2022-07-17T10:02:31;95573.09;;;30.82;30.36
6132;BME280;3097;42.692;23.278;2022-07-17T10:04:58;95572.63;;;30.80;31.06
6132;BME280;3097;42.692;23.278;2022-07-17T10:07:23;95574.97;;;30.94;31.63
6132;BME280;3097;42.692;23.278;2022-07-17T10:09:49;95576.09;;;31.05;32.67
6132;BME280;3097;42.692;23.278;2022-07-17T10:12:15;95582.84;;;31.02;31.17
6132;BME280;3097;42.692;23.278;2022-07-17T10:14:42;95570.50;;;30.98;31.65
6132;BME280;3097;42.692;23.278;2022-07-17T10:17:12;95568.22;;;31.08;32.76
6132;BME280;3097;42.692;23.278;2022-07-17T10:19:50;95568.66;;;31.10;31.16
6132;BME280;3097;42.692;23.278;2022-07-17T10:22:16;95563.41;;;31.02;31.24
6132;BME280;3097;42.692;23.278;2022-07-17T10:25:04;95558.31;;;30.97;31.44
6132;BME280;3097;42.692;23.278;2022-07-17T10:27:30;95561.53;;;31.02;31.69
6132;BME280;3097;42.692;23.278;2022-07-17T10:32:25;95554.88;;;30.84;30.83
6132;BME280;3097;42.692;23.278;2022-07-17T10:40:22;95484.09;;;30.34;31.51
6132;BME280;3097;42.692;23.278;2022-07-17T10:43:07;95544.22;;;30.72;31.58
6132;BME280;3097;42.692;23.278;2022-07-17T10:45:34;95549.31;;;30.77;31.53
6132;BME280;3097;42.692;23.278;2022-07-17T10:48:04;95550.09;;;30.77;31.98
6132;BME280;3097;42.692;23.278;2022-07-17T10:53:18;95550.00;;;30.86;32.03
6132;BME280;3097;42.692;23.278;2022-07-17T10:55:49;95537.47;;;30.87;30.38
6132;BME280;3097;42.692;23.278;2022-07-17T10:58:18;95539.56;;;30.69;31.76
6132;BME280;3097;42.692;23.278;2022-07-17T11:03:23;95480.13;;;30.65;31.90
6132;BME280;3097;42.692;23.278;2022-07-17T11:05:49;95532.88;;;31.24;30.75
6132;BME280;3097;42.692;23.278;2022-07-17T11:08:14;95526.97;;;31.30;30.70
6132;BME280;3097;42.692;23.278;2022-07-17T11:10:40;95529.84;;;31.37;30.83
6132;BME280;3097;42.692;23.278;2022-07-17T11:13:13;95520.66;;;31.35;31.25
6132;BME280;3097;42.692;23.278;2022-07-17T11:15:47;95532.19;;;31.39;29.90
6132;BME280;3097;42.692;23.278;2022-07-17T11:18:15;95526.34;;;31.21;30.19
6132;BME280;3097;42.692;23.278;2022-07-17T11:20:59;95520.22;;;31.21;30.88
6132;BME280;3097;42.692;23.278;2022-07-17T11:23:27;95519.44;;;31.20;30.85
6132;BME280;3097;42.692;23.278;2022-07-17T11:25:55;95516.91;;;31.24;30.83
6132;BME280;3097;42.692;23.278;2022-07-17T11:31:01;95506.03;;;31.17;30.40
6132;BME280;3097;42.692;23.278;2022-07-17T11:33:27;95510.34;;;31.21;31.28
6132;BME280;3097;42.692;23.278;2022-07-17T11:35:52;95507.34;;;31.23;30.38
6132;BME280;3097;42.692;23.278;2022-07-17T11:38:27;95515.09;;;31.28;30.58
6132;BME280;3097;42.692;23.278;2022-07-17T11:40:54;95515.53;;;31.30;29.43
6132;BME280;3097;42.692;23.278;2022-07-17T11:43:20;95510.25;;;31.05;29.65
6132;BME280;3097;42.692;23.278;2022-07-17T11:45:46;95510.50;;;30.76;31.82
6132;BME280;3097;42.692;23.278;2022-07-17T11:48:12;95501.41;;;30.65;31.50
6132;BME280;3097;42.692;23.278;2022-07-17T11:51:11;95508.31;;;30.66;30.92
6132;BME280;3097;42.692;23.278;2022-07-17T11:53:38;95503.50;;;30.47;31.32
6132;BME280;3097;42.692;23.278;2022-07-17T11:56:20;95480.53;;;30.43;31.90
6132;BME280;3097;42.692;23.278;2022-07-17T11:58:56;95484.31;;;30.42;32.28
6132;BME280;3097;42.692;23.278;2022-07-17T12:01:23;95475.09;;;30.27;31.65
6132;BME280;3097;42.692;23.278;2022-07-17T12:04:02;95500.94;;;30.38;32.90
6132;BME280;3097;42.692;23.278;2022-07-17T12:06:27;95462.25;;;30.29;33.42
6132;BME280;3097;42.692;23.278;2022-07-17T12:08:54;95489.66;;;30.54;32.47
6132;BME280;3097;42.692;23.278;2022-07-17T12:11:20;95494.66;;;30.55;33.39
6132;BME280;3097;42.692;23.278;2022-07-17T12:13:46;95491.75;;;30.60;33.24
6132;BME280;3097;42.692;23.278;2022-07-17T12:18:58;95471.66;;;30.38;32.13
6132;BME280;3097;42.692;23.278;2022-07-17T12:21:26;95486.41;;;30.48;33.54
6132;BME280;3097;42.692;23.278;2022-07-17T12:23:58;95474.25;;;30.59;32.81
6132;BME280;3097;42.692;23.278;2022-07-17T12:26:24;95482.41;;;30.91;32.99
6132;BME280;3097;42.692;23.278;2022-07-17T12:28:49;95478.63;;;31.04;33.96
6132;BME280;3097;42.692;23.278;2022-07-17T12:31:15;95476.88;;;31.08;32.76
6132;BME280;3097;42.692;23.278;2022-07-17T12:33:42;95486.25;;;31.05;33.17
6132;BME280;3097;42.692;23.278;2022-07-17T12:36:08;95483.63;;;30.93;32.88
6132;BME280;3097;42.692;23.278;2022-07-17T12:38:33;95485.44;;;30.89;33.71
6132;BME280;3097;42.692;23.278;2022-07-17T12:40:59;95465.56;;;30.87;33.42
6132;BME280;3097;42.692;23.278;2022-07-17T12:43:37;95478.31;;;30.93;34.42
6132;BME280;3097;42.692;23.278;2022-07-17T12:46:02;95461.47;;;30.89;34.03
6132;BME280;3097;42.692;23.278;2022-07-17T12:48:27;95478.63;;;31.04;34.42
6132;BME280;3097;42.692;23.278;2022-07-17T12:50:53;95458.66;;;30.98;33.86
6132;BME280;3097;42.692;23.278;2022-07-17T12:53:34;95486.63;;;31.04;34.54
6132;BME280;3097;42.692;23.278;2022-07-17T12:56:01;95479.91;;;30.82;34.25
6132;BME280;3097;42.692;23.278;2022-07-17T12:58:27;95484.22;;;30.62;34.51
6132;BME280;3097;42.692;23.278;2022-07-17T13:00:52;95478.59;;;30.52;35.10
6132;BME280;3097;42.692;23.278;2022-07-17T13:03:18;95462.91;;;30.26;35.50
6132;BME280;3097;42.692;23.278;2022-07-17T13:05:43;95481.66;;;30.29;35.79
6132;BME280;3097;42.692;23.278;2022-07-17T13:08:08;95480.19;;;30.20;36.28
6132;BME280;3097;42.692;23.278;2022-07-17T13:10:34;95460.34;;;30.05;36.63
6132;BME280;3097;42.692;23.278;2022-07-17T13:13:00;95471.16;;;30.00;36.35
6132;BME280;3097;42.692;23.278;2022-07-17T13:15:26;95463.19;;;30.00;37.27
6132;BME280;3097;42.692;23.278;2022-07-17T13:17:51;95466.41;;;29.93;37.19
6132;BME280;3097;42.692;23.278;2022-07-17T13:20:17;95468.72;;;29.95;37.47
6132;BME280;3097;42.692;23.278;2022-07-17T13:22:42;95470.28;;;29.96;37.04
6132;BME280;3097;42.692;23.278;2022-07-17T13:25:08;95456.22;;;29.95;37.06
6132;BME280;3097;42.692;23.278;2022-07-17T13:27:33;95457.97;;;29.91;36.96
6132;BME280;3097;42.692;23.278;2022-07-17T13:29:59;95443.97;;;29.82;37.11